createdAt,value
2022-09-04T00:00:03.609Z,100823.94
2022-09-04T00:00:38.414Z,100842.69
2022-09-04T00:01:09.638Z,100837.28
2022-09-04T00:01:45.098Z,100835.66
2022-09-04T00:02:25.435Z,100837.72
2022-09-04T00:03:07.689Z,100822.41
2022-09-04T00:03:39.589Z,100842.69
2022-09-04T00:04:15.476Z,100843.31
2022-09-04T00:04:46.867Z,100833.63
2022-09-04T00:05:17.236Z,100839.38
2022-09-04T00:05:49.336Z,100837.44
2022-09-04T00:06:19.381Z,100836.94
2022-09-04T00:06:49.671Z,100842.84
2022-09-04T00:07:19.052Z,100841.84
2022-09-04T00:07:57.706Z,100844.09
2022-09-04T00:08:52.576Z,100850.81
2022-09-04T00:09:23.831Z,100841.63
2022-09-04T00:09:53.853Z,100845.84
2022-09-04T00:10:22.346Z,100847.66
2022-09-04T00:10:53.724Z,100839.47
2022-09-04T00:11:29.478Z,100845.94
2022-09-04T00:11:59.517Z,100845.31
2022-09-04T00:12:26.950Z,100849.84
2022-09-04T00:12:54.755Z,100852.25
2022-09-04T00:13:22.031Z,100849.31
2022-09-04T00:13:51.637Z,100844.88
2022-09-04T00:14:17.722Z,100850.28
2022-09-04T00:14:45.860Z,100842.31
2022-09-04T00:15:15.470Z,100853.56
2022-09-04T00:15:43.739Z,100853.31
2022-09-04T00:16:10.222Z,100845.75
2022-09-04T00:16:43.105Z,100850.81
2022-09-04T00:17:11.063Z,100850.72
2022-09-04T00:17:40.308Z,100855.66
2022-09-04T00:18:08.321Z,100843.88
2022-09-04T00:18:37.369Z,100848.28
2022-09-04T00:19:08.450Z,100852.72
2022-09-04T00:19:36.652Z,100845.66
2022-09-04T00:20:02.683Z,100852.13
2022-09-04T00:20:34.121Z,100855.16
2022-09-04T00:21:01.586Z,100851.59
2022-09-04T00:21:34.445Z,100849.66
2022-09-04T00:21:58.729Z,100857.19
2022-09-04T00:22:33.593Z,100852.66
2022-09-04T00:23:01.980Z,100854.03
2022-09-04T00:23:31.621Z,100858.38
2022-09-04T00:23:58.038Z,100841.63
2022-09-04T00:24:24.714Z,100856.63
2022-09-04T00:24:53.879Z,100851.13
2022-09-04T00:25:25.385Z,100863.63
2022-09-04T00:25:57.758Z,100861.16
2022-09-04T00:26:30.708Z,100857.50
2022-09-04T00:26:59.381Z,100863.63
2022-09-04T00:27:24.884Z,100867.44
2022-09-04T00:27:52.184Z,100860.31
2022-09-04T00:28:26.751Z,100862.78
2022-09-04T00:28:50.982Z,100864.75
2022-09-04T00:29:20.212Z,100861.63
2022-09-04T00:29:49.008Z,100855.25
2022-09-04T00:30:15.280Z,100863.63
2022-09-04T00:30:46.260Z,100860.94
2022-09-04T00:31:25.819Z,100874.34
2022-09-04T00:31:53.149Z,100864.50
2022-09-04T00:32:24.808Z,100862.56
2022-09-04T00:32:55.345Z,100863.78
2022-09-04T00:33:23.686Z,100862.91
2022-09-04T00:33:54.216Z,100863.44
2022-09-04T00:34:25.762Z,100868.97
2022-09-04T00:35:05.912Z,100868.41
2022-09-04T00:35:31.284Z,100874.44
2022-09-04T00:35:58.658Z,100867.19
2022-09-04T00:36:25.338Z,100871.00
2022-09-04T00:36:51.559Z,100863.44
2022-09-04T00:37:17.316Z,100872.31
2022-09-04T00:37:44.251Z,100867.34
2022-09-04T00:38:11.801Z,100868.31
2022-09-04T00:39:26.584Z,100867.94
2022-09-04T00:39:54.653Z,100871.59
2022-09-04T00:40:25.263Z,100856.81
2022-09-04T00:40:57.722Z,100867.16
2022-09-04T00:41:29.379Z,100869.47
2022-09-04T00:42:05.768Z,100873.66
2022-09-04T00:42:43.396Z,100854.34
2022-09-04T00:43:27.948Z,100868.81
2022-09-04T00:44:07.796Z,100852.94
2022-09-04T00:44:45.783Z,100869.97
2022-09-04T00:45:16.944Z,100870.97
2022-09-04T00:45:58.388Z,100871.31
2022-09-04T00:46:59.118Z,100870.78
2022-09-04T00:47:49.353Z,100865.47
2022-09-04T00:48:28.359Z,100871.06
2022-09-04T00:49:20.244Z,100877.44
2022-09-04T00:50:19.848Z,100871.31
2022-09-04T00:51:06.825Z,100873.88
2022-09-04T00:51:38.356Z,100867.53
2022-09-04T00:52:12.804Z,100866.88
2022-09-04T00:52:58.463Z,100880.91
2022-09-04T00:53:41.755Z,100876.59
2022-09-04T00:54:32.845Z,100873.66
2022-09-04T00:55:08.954Z,100879.41
2022-09-04T00:55:50.689Z,100868.78
2022-09-04T00:56:31.453Z,100866.97
2022-09-04T00:57:21.088Z,100869.47
2022-09-04T00:58:07.959Z,100865.22
2022-09-04T00:58:47.099Z,100865.03
2022-09-04T00:59:20.490Z,100874.63
2022-09-04T01:00:04.797Z,100869.91
2022-09-04T01:00:27.930Z,100863.72
2022-09-04T01:00:50.442Z,100871.81
2022-09-04T01:01:19.204Z,100864.59
2022-09-04T01:01:42.336Z,100869.47
2022-09-04T01:02:12.458Z,100869.22
2022-09-04T01:02:54.314Z,100870.09
2022-09-04T01:03:31.682Z,100853.81
2022-09-04T01:04:17.489Z,100874.63
2022-09-04T01:04:43.223Z,100869.56
2022-09-04T01:05:25.670Z,100855.53
2022-09-04T01:06:03.980Z,100863.94
2022-09-04T01:06:35.551Z,100875.72
2022-09-04T01:07:21.193Z,100879.28
2022-09-04T01:07:56.818Z,100871.72
2022-09-04T01:08:32.744Z,100874.19
2022-09-04T01:09:11.008Z,100879.19
2022-09-04T01:09:48.557Z,100879.50
2022-09-04T01:10:24.257Z,100877.97
2022-09-04T01:11:00.130Z,100877.78
2022-09-04T01:11:33.902Z,100870.41
2022-09-04T01:12:06.455Z,100876.16
2022-09-04T01:12:37.729Z,100878.53
2022-09-04T01:13:07.898Z,100876.28
2022-09-04T01:13:38.558Z,100873.03
2022-09-04T01:14:10.781Z,100872.72
2022-09-04T01:14:41.920Z,100870.00
2022-09-04T01:15:14.465Z,100873.88
2022-09-04T01:15:44.982Z,100880.56
2022-09-04T01:16:11.181Z,100877.00
2022-09-04T01:16:37.623Z,100878.66
2022-09-04T01:17:10.145Z,100880.25
2022-09-04T01:17:37.153Z,100885.53
2022-09-04T01:18:08.102Z,100881.13
2022-09-04T01:18:38.152Z,100882.94
2022-09-04T01:19:10.989Z,100885.88
2022-09-04T01:19:49.738Z,100886.75
2022-09-04T01:20:20.333Z,100885.97
2022-09-04T01:21:06.363Z,100883.16
2022-09-04T01:22:01.364Z,100878.31
2022-09-04T01:22:40.470Z,100883.81
2022-09-04T01:23:16.644Z,100875.19
2022-09-04T01:23:56.304Z,100879.59
2022-09-04T01:24:40.040Z,100879.69
2022-09-04T01:25:08.541Z,100882.41
2022-09-04T01:25:52.116Z,100884.78
2022-09-04T01:26:23.319Z,100880.13
2022-09-04T01:26:50.050Z,100886.63
2022-09-04T01:27:22.648Z,100876.88
2022-09-04T01:27:54.570Z,100880.59
2022-09-04T01:28:27.084Z,100886.81
2022-09-04T01:29:01.674Z,100879.91
2022-09-04T01:29:33.019Z,100867.63
2022-09-04T01:30:06.798Z,100889.50
2022-09-04T01:30:35.117Z,100882.28
2022-09-04T01:31:04.423Z,100883.81
2022-09-04T01:31:36.541Z,100885.84
2022-09-04T01:32:09.064Z,100890.94
2022-09-04T01:32:43.791Z,100883.59
2022-09-04T01:33:12.986Z,100887.25
2022-09-04T01:33:46.111Z,100879.28
2022-09-04T01:34:22.805Z,100886.81
2022-09-04T01:34:53.861Z,100876.66
2022-09-04T01:35:25.657Z,100894.16
2022-09-04T01:35:55.810Z,100890.69
2022-09-04T01:36:28.823Z,100891.34
2022-09-04T01:36:59.778Z,100883.06
2022-09-04T01:37:34.609Z,100892.44
2022-09-04T01:38:03.092Z,100890.69
2022-09-04T01:38:33.695Z,100896.63
2022-09-04T01:38:58.653Z,100890.19
2022-09-04T01:39:24.907Z,100896.44
2022-09-04T01:39:57.230Z,100887.25
2022-09-04T01:40:35.174Z,100869.13
2022-09-04T01:41:07.256Z,100890.81
2022-09-04T01:41:38.203Z,100900.84
2022-09-04T01:42:05.322Z,100886.63
2022-09-04T01:42:37.620Z,100894.47
2022-09-04T01:43:05.774Z,100891.06
2022-09-04T01:43:27.730Z,100897.00
2022-09-04T01:43:50.829Z,100894.28
2022-09-04T01:44:14.383Z,100897.84
2022-09-04T01:44:36.908Z,100890.59
2022-09-04T01:44:58.534Z,100895.03
2022-09-04T01:45:33.388Z,100897.63
2022-09-04T01:46:38.157Z,100895.44
2022-09-04T01:47:11.154Z,100901.94
2022-09-04T01:47:43.313Z,100898.06
2022-09-04T01:48:10.371Z,100886.91
2022-09-04T01:48:45.063Z,100899.47
2022-09-04T01:49:16.381Z,100908.63
2022-09-04T01:49:42.682Z,100900.63
2022-09-04T01:50:11.048Z,100907.75
2022-09-04T01:50:32.990Z,100895.13
2022-09-04T01:51:01.872Z,100872.88
2022-09-04T01:51:30.475Z,100909.38
2022-09-04T01:52:03.139Z,100898.69
2022-09-04T01:52:38.765Z,100908.63
2022-09-04T01:53:07.794Z,100901.28
2022-09-04T01:53:36.874Z,100904.88
2022-09-04T01:54:12.684Z,100891.34
2022-09-04T01:54:47.304Z,100908.28
2022-09-04T01:55:20.111Z,100906.16
2022-09-04T01:55:49.548Z,100904.09
2022-09-04T01:56:20.841Z,100903.00
2022-09-04T01:56:48.337Z,100908.19
2022-09-04T01:57:19.760Z,100905.69
2022-09-04T01:57:56.173Z,100912.94
2022-09-04T01:58:29.541Z,100915.75
2022-09-04T01:59:00.046Z,100910.44
2022-09-04T01:59:28.523Z,100902.22
2022-09-04T02:00:02.211Z,100903.09
2022-09-04T02:00:30.109Z,100912.50
2022-09-04T02:01:01.331Z,100903.53
2022-09-04T02:01:35.560Z,100911.19
2022-09-04T02:02:04.535Z,100918.28
2022-09-04T02:02:30.969Z,100912.47
2022-09-04T02:03:00.542Z,100910.31
2022-09-04T02:03:27.465Z,100913.69
2022-09-04T02:03:57.531Z,100912.59
2022-09-04T02:04:26.555Z,100918.94
2022-09-04T02:04:56.331Z,100912.59
2022-09-04T02:05:26.321Z,100914.22
2022-09-04T02:06:01.615Z,100915.75
2022-09-04T02:06:33.002Z,100915.09
2022-09-04T02:07:10.049Z,100910.31
2022-09-04T02:07:36.162Z,100912.91
2022-09-04T02:08:12.079Z,100913.56
2022-09-04T02:08:49.734Z,100922.97
2022-09-04T02:09:26.345Z,100915.72
2022-09-04T02:09:58.638Z,100927.81
2022-09-04T02:10:30.155Z,100918.28
2022-09-04T02:11:00.126Z,100916.38
2022-09-04T02:11:27.819Z,100919.75
2022-09-04T02:12:01.406Z,100924.75
2022-09-04T02:12:38.453Z,100921.19
2022-09-04T02:13:15.213Z,100921.94
2022-09-04T02:13:51.440Z,100924.13
2022-09-04T02:14:35.565Z,100918.72
2022-09-04T02:15:06.540Z,100924.13
2022-09-04T02:15:37.555Z,100925.28
2022-09-04T02:16:14.388Z,100924.56
2022-09-04T02:16:45.727Z,100925.94
2022-09-04T02:17:10.952Z,100919.16
2022-09-04T02:17:41.680Z,100927.91
2022-09-04T02:18:13.586Z,100927.81
2022-09-04T02:18:50.287Z,100920.56
2022-09-04T02:19:24.065Z,100919.72
2022-09-04T02:20:03.608Z,100933.75
2022-09-04T02:20:28.681Z,100929.97
2022-09-04T02:20:57.538Z,100930.59
2022-09-04T02:21:26.439Z,100941.06
2022-09-04T02:21:56.036Z,100932.09
2022-09-04T02:22:27.604Z,100936.44
2022-09-04T02:22:59.032Z,100939.88
2022-09-04T02:23:30.004Z,100937.19
2022-09-04T02:24:05.698Z,100938.38
2022-09-04T02:24:34.346Z,100943.66
2022-09-04T02:25:05.634Z,100931.06
2022-09-04T02:25:31.319Z,100940.66
2022-09-04T02:26:08.512Z,100936.44
2022-09-04T02:26:37.527Z,100932.66
2022-09-04T02:27:09.201Z,100941.16
2022-09-04T02:27:40.900Z,100938.38
2022-09-04T02:28:18.061Z,100931.06
2022-09-04T02:28:53.189Z,100934.59
2022-09-04T02:29:26.085Z,100933.94
2022-09-04T02:29:58.222Z,100929.72
2022-09-04T02:30:21.077Z,100944.06
2022-09-04T02:30:54.348Z,100923.56
2022-09-04T02:31:25.788Z,100935.66
2022-09-04T02:31:54.578Z,100941.72
2022-09-04T02:32:20.585Z,100932.75
2022-09-04T02:32:50.391Z,100937.09
2022-09-04T02:33:19.109Z,100937.72
2022-09-04T02:33:49.098Z,100929.78
2022-09-04T02:34:19.874Z,100923.59
2022-09-04T02:34:50.900Z,100927.44
2022-09-04T02:35:20.318Z,100940.50
2022-09-04T02:35:47.165Z,100934.34
2022-09-04T02:36:18.528Z,100935.91
2022-09-04T02:36:46.588Z,100934.91
2022-09-04T02:37:21.478Z,100930.81
2022-09-04T02:37:58.980Z,100942.13
2022-09-04T02:38:32.410Z,100934.03
2022-09-04T02:39:04.817Z,100933.50
2022-09-04T02:39:44.736Z,100933.94
2022-09-04T02:40:15.748Z,100939.97
2022-09-04T02:40:46.747Z,100943.44
2022-09-04T02:41:20.204Z,100940.66
2022-09-04T02:41:51.056Z,100941.50
2022-09-04T02:42:23.899Z,100935.09
2022-09-04T02:42:59.432Z,100934.97
2022-09-04T02:43:35.660Z,100937.59
2022-09-04T02:44:10.424Z,100943.06
2022-09-04T02:44:45.473Z,100935.25
2022-09-04T02:45:19.443Z,100936.81
2022-09-04T02:45:46.038Z,100910.75
2022-09-04T02:46:16.771Z,100941.88
2022-09-04T02:46:50.362Z,100933.06
2022-09-04T02:47:23.153Z,100938.63
2022-09-04T02:47:50.450Z,100938.44
2022-09-04T02:48:18.429Z,100942.75
2022-09-04T02:48:57.533Z,100942.66
2022-09-04T02:49:29.236Z,100933.34
2022-09-04T02:50:01.877Z,100943.63
2022-09-04T02:50:40.305Z,100938.22
2022-09-04T02:51:18.532Z,100945.91
2022-09-04T02:51:54.589Z,100947.66
2022-09-04T02:52:33.480Z,100941.69
2022-09-04T02:53:08.229Z,100945.34
2022-09-04T02:53:40.776Z,100942.56
2022-09-04T02:54:11.064Z,100936.63
2022-09-04T02:54:49.634Z,100937.25
2022-09-04T02:55:20.772Z,100941.78
2022-09-04T02:55:58.250Z,100941.88
2022-09-04T02:56:31.273Z,100943.75
2022-09-04T02:57:09.227Z,100943.66
2022-09-04T02:57:44.607Z,100941.19
2022-09-04T02:58:15.397Z,100939.22
2022-09-04T02:58:49.849Z,100945.06
2022-09-04T02:59:26.659Z,100950.00
2022-09-04T02:59:59.030Z,100948.16
2022-09-04T03:00:23.840Z,100956.78
2022-09-04T03:00:55.116Z,100946.75
2022-09-04T03:01:22.365Z,100944.63
2022-09-04T03:01:51.964Z,100946.56
2022-09-04T03:02:22.698Z,100945.28
2022-09-04T03:02:53.104Z,100949.59
2022-09-04T03:03:20.852Z,100944.44
2022-09-04T03:03:48.047Z,100937.31
2022-09-04T03:04:15.785Z,100938.03
2022-09-04T03:04:49.970Z,100943.44
2022-09-04T03:05:20.032Z,100939.69
2022-09-04T03:05:50.180Z,100952.69
2022-09-04T03:06:17.217Z,100950.00
2022-09-04T03:06:50.500Z,100945.06
2022-09-04T03:07:17.807Z,100952.91
2022-09-04T03:07:48.925Z,100955.41
2022-09-04T03:08:18.329Z,100949.91
2022-09-04T03:08:47.034Z,100950.31
2022-09-04T03:09:15.121Z,100945.59
2022-09-04T03:09:41.620Z,100938.00
2022-09-04T03:10:12.451Z,100946.88
2022-09-04T03:10:41.564Z,100948.16
2022-09-04T03:11:12.484Z,100939.94
2022-09-04T03:11:40.954Z,100942.94
2022-09-04T03:12:29.608Z,100938.63
2022-09-04T03:12:56.316Z,100948.88
2022-09-04T03:13:26.422Z,100942.34
2022-09-04T03:13:52.843Z,100944.19
2022-09-04T03:14:24.505Z,100944.84
2022-09-04T03:14:54.082Z,100943.66
2022-09-04T03:15:23.777Z,100947.06
2022-09-04T03:15:51.790Z,100942.44
2022-09-04T03:16:21.997Z,100946.88
2022-09-04T03:16:48.299Z,100944.06
2022-09-04T03:17:17.126Z,100950.53
2022-09-04T03:17:48.333Z,100956.47
2022-09-04T03:18:17.305Z,100956.66
2022-09-04T03:18:59.123Z,100953.22
2022-09-04T03:19:30.425Z,100951.28
2022-09-04T03:19:57.090Z,100958.31
2022-09-04T03:20:23.069Z,100939.19
2022-09-04T03:20:52.297Z,100952.81
2022-09-04T03:21:20.988Z,100946.66
2022-09-04T03:21:48.934Z,100957.91
2022-09-04T03:22:19.346Z,100955.09
2022-09-04T03:22:48.852Z,100951.66
2022-09-04T03:23:19.573Z,100955.16
2022-09-04T03:23:49.647Z,100956.97
2022-09-04T03:24:17.417Z,100958.94
2022-09-04T03:24:59.956Z,100950.72
2022-09-04T03:25:57.613Z,100952.34
2022-09-04T03:26:23.446Z,100946.88
2022-09-04T03:26:50.688Z,100939.50
2022-09-04T03:27:16.799Z,100950.06
2022-09-04T03:27:39.603Z,100949.19
2022-09-04T03:28:02.031Z,100948.31
2022-09-04T03:28:35.600Z,100943.81
2022-09-04T03:29:10.034Z,100950.94
2022-09-04T03:29:43.740Z,100956.72
2022-09-04T03:30:08.140Z,100950.16
2022-09-04T03:30:35.158Z,100947.63
2022-09-04T03:31:01.292Z,100953.59
2022-09-04T03:31:32.072Z,100950.75
2022-09-04T03:32:15.647Z,100949.63
2022-09-04T03:32:48.711Z,100954.88
2022-09-04T03:33:19.112Z,100952.41
2022-09-04T03:33:48.012Z,100952.50
2022-09-04T03:34:33.468Z,100955.09
2022-09-04T03:35:05.210Z,100960.13
2022-09-04T03:35:35.500Z,100956.84
2022-09-04T03:36:03.045Z,100951.25
2022-09-04T03:36:36.188Z,100953.06
2022-09-04T03:37:16.240Z,100950.38
2022-09-04T03:37:58.826Z,100947.63
2022-09-04T03:38:29.622Z,100953.47
2022-09-04T03:39:02.681Z,100948.75
2022-09-04T03:39:30.739Z,100938.78
2022-09-04T03:40:08.849Z,100954.16
2022-09-04T03:40:37.509Z,100951.34
2022-09-04T03:41:13.158Z,100952.31
2022-09-04T03:41:45.187Z,100952.97
2022-09-04T03:42:19.888Z,100953.94
2022-09-04T03:42:56.131Z,100952.97
2022-09-04T03:43:51.330Z,100956.31
2022-09-04T03:44:24.956Z,100960.88
2022-09-04T03:45:02.601Z,100965.09
2022-09-04T03:45:33.119Z,100957.81
2022-09-04T03:46:04.008Z,100965.94
2022-09-04T03:46:37.836Z,100971.19
2022-09-04T03:47:11.423Z,100969.50
2022-09-04T03:47:41.628Z,100953.81
2022-09-04T03:48:21.335Z,100964.22
2022-09-04T03:49:05.536Z,100969.31
2022-09-04T03:49:42.739Z,100958.34
2022-09-04T03:50:17.246Z,100969.59
2022-09-04T03:50:48.744Z,100950.75
2022-09-04T03:51:19.149Z,100965.44
2022-09-04T03:51:55.580Z,100963.72
2022-09-04T03:52:26.656Z,100980.75
2022-09-04T03:52:57.988Z,100969.41
2022-09-04T03:53:30.103Z,100966.06
2022-09-04T03:54:02.221Z,100980.84
2022-09-04T03:54:42.367Z,100976.34
2022-09-04T03:55:28.972Z,100969.69
2022-09-04T03:56:11.082Z,100977.88
2022-09-04T03:56:46.879Z,100975.75
2022-09-04T03:57:40.915Z,100975.75
2022-09-04T03:58:14.578Z,100984.31
2022-09-04T03:58:44.177Z,100982.47
2022-09-04T03:59:09.216Z,100979.78
2022-09-04T03:59:56.716Z,100981.53
2022-09-04T04:00:20.688Z,100983.03
2022-09-04T04:00:57.020Z,100975.91
2022-09-04T04:01:29.454Z,100976.22
2022-09-04T04:01:59.080Z,100984.97
2022-09-04T04:02:30.246Z,100986.59
2022-09-04T04:03:15.653Z,100981.41
2022-09-04T04:03:56.214Z,100987.56
2022-09-04T04:05:00.347Z,100986.59
2022-09-04T04:05:48.832Z,100986.59
2022-09-04T04:06:24.284Z,100983.25
2022-09-04T04:06:52.841Z,100976.63
2022-09-04T04:07:28.264Z,100985.09
2022-09-04T04:08:05.492Z,100984.00
2022-09-04T04:08:37.209Z,100985.75
2022-09-04T04:09:20.089Z,100990.28
2022-09-04T04:09:55.624Z,100983.72
2022-09-04T04:10:31.165Z,100987.69
2022-09-04T04:11:00.355Z,100976.25
2022-09-04T04:11:43.721Z,100980.16
2022-09-04T04:12:19.699Z,100988.06
2022-09-04T04:13:15.201Z,100988.81
2022-09-04T04:13:55.112Z,100984.03
2022-09-04T04:14:38.197Z,100981.94
2022-09-04T04:15:13.815Z,100985.00
2022-09-04T04:15:48.102Z,100986.72
2022-09-04T04:16:24.769Z,100984.59
2022-09-04T04:17:00.111Z,100985.78
2022-09-04T04:17:37.828Z,100994.41
2022-09-04T04:18:31.935Z,100983.81
2022-09-04T04:19:27.740Z,100981.91
2022-09-04T04:20:06.926Z,100989.22
2022-09-04T04:20:41.099Z,100997.69
2022-09-04T04:21:14.589Z,100991.91
2022-09-04T04:21:55.836Z,100993.06
2022-09-04T04:22:34.133Z,100990.19
2022-09-04T04:23:11.348Z,100996.34
2022-09-04T04:24:21.941Z,100992.19
2022-09-04T04:25:03.121Z,100992.72
2022-09-04T04:25:48.802Z,100997.00
2022-09-04T04:26:21.601Z,100997.88
2022-09-04T04:26:59.296Z,100998.84
2022-09-04T04:27:36.121Z,100992.28
2022-09-04T04:28:19.816Z,100998.72
2022-09-04T04:29:10.141Z,100998.94
2022-09-04T04:29:51.988Z,101004.41
2022-09-04T04:30:16.001Z,101000.34
2022-09-04T04:30:49.347Z,101002.09
2022-09-04T04:31:20.812Z,100993.63
2022-09-04T04:32:11.696Z,101006.31
2022-09-04T04:32:51.146Z,101003.25
2022-09-04T04:33:32.429Z,100984.31
2022-09-04T04:34:03.805Z,101003.91
2022-09-04T04:34:35.165Z,101002.19
2022-09-04T04:35:08.712Z,101001.03
2022-09-04T04:35:39.537Z,101007.19
2022-09-04T04:36:10.051Z,101006.09
2022-09-04T04:36:37.813Z,101005.22
2022-09-04T04:37:07.475Z,101004.03
2022-09-04T04:37:44.373Z,101006.72
2022-09-04T04:38:18.425Z,101008.34
2022-09-04T04:38:53.691Z,101009.59
2022-09-04T04:39:29.996Z,101012.00
2022-09-04T04:39:58.764Z,101016.41
2022-09-04T04:40:32.611Z,101008.44
2022-09-04T04:41:05.332Z,100997.88
2022-09-04T04:42:00.550Z,101014.88
2022-09-04T04:42:29.979Z,101012.84
2022-09-04T04:42:59.559Z,100995.47
2022-09-04T04:43:31.243Z,101012.97
2022-09-04T04:44:07.041Z,101004.69
2022-09-04T04:45:00.935Z,101019.03
2022-09-04T04:45:47.616Z,101016.34
2022-09-04T04:46:19.275Z,101011.69
2022-09-04T04:46:55.914Z,100997.19
2022-09-04T04:47:34.999Z,101008.16
2022-09-04T04:48:18.258Z,101014.50
2022-09-04T04:49:00.016Z,101016.94
2022-09-04T04:49:45.506Z,101012.84
2022-09-04T04:50:16.172Z,101018.84
2022-09-04T04:50:54.200Z,101020.63
2022-09-04T04:51:31.754Z,101014.38
2022-09-04T04:52:17.676Z,101013.16
2022-09-04T04:52:49.317Z,101016.72
2022-09-04T04:53:19.091Z,101016.91
2022-09-04T04:53:50.520Z,101019.97
2022-09-04T04:54:30.275Z,101019.13
2022-09-04T04:55:06.201Z,101013.63
2022-09-04T04:55:43.003Z,101023.25
2022-09-04T04:56:14.087Z,101012.78
2022-09-04T04:56:48.149Z,101026.69
2022-09-04T04:57:23.120Z,101027.75
2022-09-04T04:57:56.396Z,101018.44
2022-09-04T04:58:32.345Z,101027.69
2022-09-04T04:59:08.897Z,101026.81
2022-09-04T04:59:38.085Z,101024.97
2022-09-04T05:00:08.799Z,101022.09
2022-09-04T05:00:40.110Z,101020.06
2022-09-04T05:01:11.841Z,101022.66
2022-09-04T05:01:44.465Z,101034.41
2022-09-04T05:02:16.994Z,101024.41
2022-09-04T05:02:49.142Z,101018.31
2022-09-04T05:03:22.355Z,101032.38
2022-09-04T05:03:59.460Z,101032.19
2022-09-04T05:04:29.987Z,101035.56
2022-09-04T05:05:02.245Z,101041.03
2022-09-04T05:05:46.933Z,101038.44
2022-09-04T05:06:14.792Z,101041.91
2022-09-04T05:06:41.750Z,101030.66
2022-09-04T05:07:11.869Z,101036.00
2022-09-04T05:07:40.595Z,101047.56
2022-09-04T05:08:09.779Z,101042.66
2022-09-04T05:08:45.580Z,101041.72
2022-09-04T05:09:15.217Z,101042.47
2022-09-04T05:09:44.660Z,101047.84
2022-09-04T05:10:14.462Z,101039.19
2022-09-04T05:10:41.543Z,101045.44
2022-09-04T05:11:10.621Z,101050.38
2022-09-04T05:11:41.039Z,101040.28
2022-09-04T05:12:09.245Z,101048.34
2022-09-04T05:12:44.264Z,101045.53
2022-09-04T05:13:17.755Z,101047.28
2022-09-04T05:13:51.664Z,101039.41
2022-09-04T05:14:31.739Z,101048.06
2022-09-04T05:15:01.247Z,101052.88
2022-09-04T05:15:32.793Z,101048.16
2022-09-04T05:16:09.351Z,101053.94
2022-09-04T05:16:42.901Z,101053.16
2022-09-04T05:17:14.547Z,101053.81
2022-09-04T05:17:47.040Z,101040.56
2022-09-04T05:18:16.248Z,101058.75
2022-09-04T05:18:45.282Z,101047.78
2022-09-04T05:19:15.397Z,101057.38
2022-09-04T05:19:46.504Z,101049.59
2022-09-04T05:20:25.615Z,101056.13
2022-09-04T05:20:54.131Z,101055.06
2022-09-04T05:21:22.680Z,101062.56
2022-09-04T05:21:52.145Z,101060.34
2022-09-04T05:22:20.870Z,101065.94
2022-09-04T05:22:47.541Z,101067.84
2022-09-04T05:23:19.437Z,101049.22
2022-09-04T05:23:54.544Z,101069.31
2022-09-04T05:24:23.634Z,101069.97
2022-09-04T05:24:56.158Z,101051.50
2022-09-04T05:25:26.603Z,101074.91
2022-09-04T05:25:54.454Z,101060.22
2022-09-04T05:26:26.100Z,101073.25
2022-09-04T05:26:56.509Z,101073.75
2022-09-04T05:27:39.626Z,101077.09
2022-09-04T05:28:10.652Z,101073.34
2022-09-04T05:28:46.403Z,101076.81
2022-09-04T05:29:17.314Z,101078.34
2022-09-04T05:29:51.634Z,101061.81
2022-09-04T05:30:18.296Z,101083.94
2022-09-04T05:30:48.262Z,101076.59
2022-09-04T05:31:19.982Z,101074.63
2022-09-04T05:31:52.351Z,101075.41
2022-09-04T05:32:21.839Z,101074.69
2022-09-04T05:32:53.490Z,101087.72
2022-09-04T05:33:26.051Z,101090.31
2022-09-04T05:33:57.245Z,101084.94
2022-09-04T05:34:26.592Z,101085.47
2022-09-04T05:35:02.126Z,101079.50
2022-09-04T05:35:37.086Z,101085.94
2022-09-04T05:36:08.774Z,101082.19
2022-09-04T05:36:44.972Z,101083.63
2022-09-04T05:37:13.349Z,101077.66
2022-09-04T05:37:41.709Z,101083.13
2022-09-04T05:38:11.137Z,101082.91
2022-09-04T05:38:40.803Z,101085.00
2022-09-04T05:39:10.572Z,101078.31
2022-09-04T05:39:41.452Z,101086.97
2022-09-04T05:40:11.254Z,101079.00
2022-09-04T05:40:47.883Z,101085.91
2022-09-04T05:41:24.574Z,101079.50
2022-09-04T05:42:09.633Z,101087.88
2022-09-04T05:42:58.783Z,101081.13
2022-09-04T05:43:33.495Z,101089.72
2022-09-04T05:44:18.615Z,101091.19
2022-09-04T05:44:54.598Z,101090.59
2022-09-04T05:45:24.873Z,101083.06
2022-09-04T05:46:00.063Z,101071.63
2022-09-04T05:46:38.882Z,101086.00
2022-09-04T05:47:09.902Z,101081.47
2022-09-04T05:47:43.429Z,101091.25
2022-09-04T05:48:16.461Z,101092.41
2022-09-04T05:48:46.809Z,101090.94
2022-09-04T05:49:18.285Z,101090.06
2022-09-04T05:49:59.384Z,101077.84
2022-09-04T05:50:32.937Z,101088.44
2022-09-04T05:51:07.139Z,101096.03
2022-09-04T05:51:54.523Z,101101.28
2022-09-04T05:52:52.708Z,101096.66
2022-09-04T05:53:41.238Z,101089.09
2022-09-04T05:54:26.518Z,101102.88
2022-09-04T05:55:16.130Z,101097.56
2022-09-04T05:55:55.196Z,101102.66
2022-09-04T05:56:39.947Z,101090.16
2022-09-04T05:57:15.241Z,101099.97
2022-09-04T05:57:51.959Z,101101.53
2022-09-04T05:58:29.415Z,101091.59
2022-09-04T05:59:12.483Z,101105.09
2022-09-04T06:00:16.133Z,101112.06
2022-09-04T06:00:50.809Z,101102.63
2022-09-04T06:01:27.918Z,101108.72
2022-09-04T06:02:33.183Z,101111.41
2022-09-04T06:03:14.690Z,101118.91
2022-09-04T06:04:02.504Z,101095.91
2022-09-04T06:04:39.085Z,101120.81
2022-09-04T06:05:13.389Z,101119.28
2022-09-04T06:05:47.179Z,101120.81
2022-09-04T06:06:19.126Z,101118.13
2022-09-04T06:06:48.288Z,101109.94
2022-09-04T06:07:17.761Z,101114.19
2022-09-04T06:07:52.420Z,101123.72
2022-09-04T06:08:29.917Z,101121.59
2022-09-04T06:09:22.778Z,101118.69
2022-09-04T06:09:58.474Z,101125.25
2022-09-04T06:10:27.371Z,101124.88
2022-09-04T06:11:02.108Z,101122.94
2022-09-04T06:11:51.532Z,101125.25
2022-09-04T06:12:36.151Z,101114.47
2022-09-04T06:13:24.922Z,101124.94
2022-09-04T06:14:07.084Z,101125.81
2022-09-04T06:14:45.637Z,101118.31
2022-09-04T06:15:16.243Z,101125.25
2022-09-04T06:15:49.878Z,101120.63
2022-09-04T06:16:28.067Z,101126.78
2022-09-04T06:17:05.018Z,101108.72
2022-09-04T06:17:37.440Z,101122.19
2022-09-04T06:18:24.425Z,101123.63
2022-09-04T06:19:01.579Z,101119.06
2022-09-04T06:19:38.657Z,101126.97
2022-09-04T06:20:34.536Z,101121.59
2022-09-04T06:21:17.335Z,101125.03
2022-09-04T06:21:54.571Z,101131.78
2022-09-04T06:22:53.809Z,101118.69
2022-09-04T06:23:37.187Z,101128.81
2022-09-04T06:24:26.483Z,101126.19
2022-09-04T06:25:05.554Z,101130.53
2022-09-04T06:25:49.654Z,101123.34
2022-09-04T06:26:48.510Z,101126.31
2022-09-04T06:27:23.082Z,101132.16
2022-09-04T06:28:03.217Z,101133.69
2022-09-04T06:28:41.164Z,101136.97
2022-09-04T06:29:17.630Z,101136.22